createdAt,value
2023-04-18T06:58:54.804Z,32.42
2023-04-18T07:01:31.216Z,28.83
2023-04-18T07:17:58.854Z,30.08
2023-04-18T07:20:34.555Z,32.60
2023-04-18T07:23:09.979Z,27.17
2023-04-18T07:25:44.266Z,27.02
2023-04-18T07:28:18.863Z,26.77
2023-04-18T07:31:08.247Z,27.65
2023-04-18T07:33:47.946Z,25.67
2023-04-18T07:36:27.357Z,29.10
2023-04-18T07:39:04.182Z,27.92
2023-04-18T07:41:42.267Z,25.90
2023-04-18T07:44:19.028Z,22.42
2023-04-18T07:46:52.973Z,25.13
2023-04-18T07:49:30.040Z,22.77
2023-04-18T07:52:04.619Z,23.80
2023-04-18T07:54:42.421Z,23.35
2023-04-18T07:57:15.825Z,26.67
2023-04-18T07:59:55.284Z,26.15
2023-04-18T08:02:36.418Z,24.67
2023-04-18T08:05:15.518Z,22.25
2023-04-18T08:07:57.840Z,25.83
2023-04-18T08:10:41.825Z,26.63
2023-04-18T08:13:17.905Z,25.75
2023-04-18T08:15:55.494Z,23.98
2023-04-18T08:18:30.781Z,26.70
2023-04-18T08:21:09.565Z,27.52
2023-04-18T08:23:50.983Z,27.13
2023-04-18T08:26:38.963Z,26.83
2023-04-18T08:29:13.413Z,30.55
2023-04-18T08:32:08.085Z,45.72
2023-04-18T08:34:54.127Z,34.17
2023-04-18T08:37:38.762Z,26.00
2023-04-18T08:40:15.148Z,29.40
2023-04-18T08:42:52.825Z,29.70
2023-04-18T08:45:38.582Z,26.25
2023-04-18T08:48:19.444Z,25.00
2023-04-18T08:50:54.743Z,27.55
2023-04-18T08:53:34.022Z,26.20
2023-04-18T08:56:07.337Z,28.10
2023-04-18T08:58:41.419Z,24.17
2023-04-18T09:01:16.031Z,25.77
2023-04-18T09:04:00.621Z,25.85
2023-04-18T09:06:36.680Z,24.27
2023-04-18T09:09:15.896Z,25.15
2023-04-18T09:11:50.916Z,25.13
2023-04-18T09:14:35.621Z,25.90
2023-04-18T09:17:11.560Z,22.70
2023-04-18T09:19:52.716Z,24.13
2023-04-18T09:22:31.737Z,23.48
2023-04-18T09:25:16.943Z,23.45
2023-04-18T09:28:04.560Z,22.27
2023-04-18T09:30:42.629Z,24.92
2023-04-18T09:33:17.323Z,20.40
2023-04-18T09:38:45.633Z,20.23
2023-04-18T09:41:32.039Z,21.70
2023-04-18T09:44:19.214Z,21.27
2023-04-18T09:47:00.645Z,22.48
2023-04-18T09:49:34.147Z,18.13
2023-04-18T09:52:11.862Z,20.67
2023-04-18T09:54:57.156Z,22.80
2023-04-18T09:57:36.363Z,23.10
2023-04-18T10:00:18.901Z,19.88
2023-04-18T10:03:01.724Z,22.30
2023-04-18T10:05:41.973Z,19.20
2023-04-18T10:08:30.559Z,22.95
2023-04-18T10:11:11.781Z,21.23
2023-04-18T10:13:52.342Z,24.38
2023-04-18T10:16:43.764Z,19.88
2023-04-18T10:19:33.548Z,18.80
2023-04-18T10:22:09.667Z,20.15
2023-04-18T10:25:01.579Z,21.95
2023-04-18T10:28:03.803Z,20.90
2023-04-18T10:31:11.615Z,22.33
2023-04-18T10:34:03.133Z,22.48
2023-04-18T10:36:39.384Z,21.60
2023-04-18T10:39:27.701Z,26.37
2023-04-18T10:42:01.418Z,25.23
2023-04-18T10:44:35.019Z,23.45
2023-04-18T10:47:30.244Z,22.17
2023-04-18T10:50:07.129Z,24.45
2023-04-18T10:52:45.340Z,24.67
2023-04-18T10:55:26.503Z,26.98
2023-04-18T10:58:05.589Z,24.10
2023-04-18T11:00:45.826Z,25.35
2023-04-18T11:03:23.788Z,23.25
2023-04-18T11:06:11.763Z,25.95
2023-04-18T11:08:51.182Z,25.42
2023-04-18T11:11:28.106Z,21.83
2023-04-18T11:14:05.062Z,23.60
2023-04-18T11:16:40.103Z,24.33
2023-04-18T11:19:28.781Z,24.98
2023-04-18T11:22:05.644Z,22.88
2023-04-18T11:24:41.924Z,20.67
2023-04-18T11:27:27.005Z,19.58
2023-04-18T11:30:05.805Z,23.83
2023-04-18T11:32:41.383Z,22.77
2023-04-18T11:35:22.648Z,21.42
2023-04-18T11:38:00.683Z,17.08
2023-04-18T11:41:01.163Z,17.00
2023-04-18T11:43:38.680Z,18.27
2023-04-18T11:46:14.545Z,16.75
2023-04-18T11:48:52.484Z,16.67
2023-04-18T11:51:48.831Z,17.48
2023-04-18T11:54:40.616Z,15.57
2023-04-18T11:57:30.034Z,14.88
2023-04-18T12:00:08.865Z,16.80
2023-04-18T12:02:54.792Z,12.30
2023-04-18T12:05:34.711Z,16.55
2023-04-18T12:08:19.576Z,15.00
2023-04-18T12:10:57.903Z,13.55
2023-04-18T12:13:45.546Z,15.82
2023-04-18T12:16:20.950Z,14.50
2023-04-18T12:19:03.702Z,14.23
2023-04-18T12:21:39.003Z,17.55
2023-04-18T12:24:28.303Z,12.20
2023-04-18T12:27:03.737Z,13.52
2023-04-18T12:29:39.184Z,14.05
2023-04-18T12:34:55.078Z,17.42
2023-04-18T12:37:40.047Z,17.83
2023-04-18T12:40:18.858Z,18.27
2023-04-18T12:43:03.544Z,19.60
2023-04-18T12:45:40.239Z,17.20
2023-04-18T12:48:13.422Z,22.42
2023-04-18T12:50:51.216Z,21.55
2023-04-18T12:53:30.701Z,21.63
2023-04-18T12:56:11.880Z,15.30
2023-04-18T12:58:50.496Z,15.18
2023-04-18T13:01:25.567Z,23.13
2023-04-18T13:04:13.036Z,16.47
2023-04-18T13:06:54.861Z,16.95
2023-04-18T13:09:32.996Z,15.60
2023-04-18T13:12:16.260Z,30.35
2023-04-18T13:14:54.499Z,17.20
2023-04-18T13:17:32.649Z,16.90
2023-04-18T13:20:08.680Z,16.98
2023-04-18T13:22:42.908Z,14.70
2023-04-18T13:25:20.808Z,14.65
2023-04-18T13:28:04.269Z,13.70
2023-04-18T13:30:42.124Z,14.45
2023-04-18T13:33:17.508Z,12.68
2023-04-18T13:35:51.914Z,13.05
2023-04-18T13:38:25.658Z,15.20
2023-04-18T13:41:11.308Z,15.50
2023-04-18T13:43:51.865Z,14.85
2023-04-18T13:46:32.336Z,16.83
2023-04-18T13:49:06.441Z,13.23
2023-04-18T13:51:39.279Z,15.20
2023-04-18T13:54:18.421Z,13.98
2023-04-18T13:56:52.037Z,12.20
2023-04-18T13:59:28.139Z,13.07
2023-04-18T14:02:04.932Z,14.40
2023-04-18T14:04:48.739Z,16.35
2023-04-18T14:07:23.161Z,16.52
2023-04-18T14:09:59.002Z,15.53
2023-04-18T14:12:38.765Z,14.68
2023-04-18T14:15:18.440Z,13.10
2023-04-18T14:17:53.797Z,13.50
2023-04-18T14:20:36.461Z,11.63
2023-04-18T14:23:11.940Z,12.07
2023-04-18T14:25:46.317Z,12.77
2023-04-18T14:28:23.302Z,12.15
2023-04-18T14:31:04.221Z,15.15
2023-04-18T14:33:38.682Z,12.77
2023-04-18T14:36:13.825Z,12.60
2023-04-18T14:38:57.971Z,15.63
2023-04-18T14:41:49.147Z,15.02
2023-04-18T14:44:26.368Z,13.27
2023-04-18T14:47:08.252Z,11.75
2023-04-18T14:49:45.939Z,13.15
2023-04-18T14:52:19.495Z,10.27
2023-04-18T14:54:52.974Z,11.20
2023-04-18T14:57:26.275Z,17.83
2023-04-18T15:00:00.261Z,9.18
2023-04-18T15:02:41.403Z,12.38
2023-04-18T15:05:17.037Z,10.68
2023-04-18T15:10:24.985Z,8.88
2023-04-18T15:12:59.059Z,10.48
2023-04-18T15:15:40.773Z,18.33
2023-04-18T15:18:18.223Z,8.48
2023-04-18T15:20:52.843Z,8.20
2023-04-18T15:23:28.241Z,7.57
2023-04-18T15:26:04.402Z,8.55
2023-04-18T15:28:38.801Z,9.13
2023-04-18T15:31:24.258Z,6.68
2023-04-18T15:34:00.176Z,11.38
2023-04-18T15:36:33.843Z,11.00
2023-04-18T15:39:10.646Z,7.65
2023-04-18T15:41:46.344Z,6.15
2023-04-18T15:44:28.108Z,8.32
2023-04-18T15:47:04.042Z,6.97
2023-04-18T15:49:41.064Z,10.23
2023-04-18T15:52:16.803Z,12.68
2023-04-18T15:54:52.051Z,7.65
2023-04-18T15:57:28.360Z,7.40
2023-04-18T16:00:03.666Z,6.85
2023-04-18T16:02:38.665Z,6.78
2023-04-18T16:05:16.159Z,8.43
2023-04-18T16:07:50.277Z,10.60
2023-04-18T16:10:30.476Z,6.13
2023-04-18T16:13:04.776Z,5.70
2023-04-18T16:15:46.450Z,8.00
2023-04-18T16:18:19.687Z,6.93
2023-04-18T16:21:02.336Z,6.68
2023-04-18T16:23:39.293Z,9.13
2023-04-18T16:26:12.098Z,8.77
2023-04-18T16:28:45.095Z,13.50
2023-04-18T16:31:22.070Z,7.15
2023-04-18T16:33:55.443Z,9.60
2023-04-18T16:36:30.948Z,7.10
2023-04-18T16:39:06.122Z,7.43
2023-04-18T16:41:40.938Z,12.07
2023-04-18T16:44:16.906Z,7.20
2023-04-18T16:46:52.499Z,14.32
2023-04-18T16:49:27.507Z,10.52
2023-04-18T16:52:09.341Z,11.25
2023-04-18T16:54:44.003Z,10.32
2023-04-18T16:57:17.426Z,7.80
2023-04-18T16:59:55.121Z,8.00
2023-04-18T17:02:49.132Z,10.65
2023-04-18T17:05:29.774Z,7.72
2023-04-18T17:08:05.264Z,8.27
2023-04-18T17:10:44.520Z,10.73
2023-04-18T17:13:18.847Z,9.10
2023-04-18T17:15:55.375Z,7.70
2023-04-18T17:18:30.663Z,7.53
2023-04-18T17:21:04.885Z,11.23
2023-04-18T17:23:45.242Z,8.15
2023-04-18T17:26:18.823Z,7.78
2023-04-18T17:28:53.340Z,8.52
2023-04-18T17:31:27.213Z,9.90
2023-04-18T17:34:01.221Z,8.75
2023-04-18T17:36:34.963Z,7.72
2023-04-18T17:39:11.453Z,9.60
2023-04-18T17:41:45.359Z,7.63
2023-04-18T17:44:18.418Z,7.55
2023-04-18T17:47:03.454Z,8.18
2023-04-18T17:49:37.303Z,9.30
2023-04-18T17:52:10.836Z,6.80
2023-04-18T17:54:46.782Z,9.82
2023-04-18T17:57:22.620Z,9.23
2023-04-18T17:59:56.634Z,7.97
2023-04-18T18:02:29.649Z,9.00
2023-04-18T18:05:04.558Z,9.07
2023-04-18T18:07:38.784Z,9.05
2023-04-18T18:10:15.628Z,9.35
2023-04-18T18:12:49.768Z,14.35
2023-04-18T18:15:23.459Z,10.05
2023-04-18T18:17:56.808Z,8.50
2023-04-18T18:20:30.607Z,7.55
2023-04-18T18:23:03.638Z,8.13
2023-04-18T18:25:40.780Z,20.83
2023-04-18T18:28:15.944Z,8.52
2023-04-18T18:30:55.915Z,9.18
2023-04-18T18:33:29.757Z,8.43
2023-04-18T18:36:08.519Z,13.15
2023-04-18T18:38:43.494Z,10.25
2023-04-18T18:43:52.618Z,9.65
2023-04-18T18:46:31.001Z,9.20
2023-04-18T18:49:05.181Z,12.63
2023-04-18T18:51:38.423Z,9.60
2023-04-18T18:54:11.136Z,9.80
2023-04-18T18:56:48.457Z,8.68
2023-04-18T18:59:26.380Z,9.82
2023-04-18T19:01:59.481Z,10.55
2023-04-18T19:04:32.558Z,12.43
2023-04-18T19:07:07.380Z,9.27
2023-04-18T19:09:40.498Z,8.73
2023-04-18T19:12:18.420Z,8.73
2023-04-18T19:14:57.281Z,8.90
2023-04-18T19:17:38.070Z,21.50
2023-04-18T19:20:11.967Z,9.68
2023-04-18T19:22:48.117Z,10.43
2023-04-18T19:25:47.262Z,9.57
2023-04-18T19:28:25.502Z,10.07
2023-04-18T19:30:58.606Z,15.40
2023-04-18T19:33:32.139Z,11.00
2023-04-18T19:36:05.461Z,11.65
2023-04-18T19:38:39.511Z,10.70
2023-04-18T19:41:13.958Z,11.93
2023-04-18T19:43:50.222Z,13.43
2023-04-18T19:46:26.510Z,12.23
2023-04-18T19:48:59.446Z,11.50
2023-04-18T19:51:41.437Z,11.10
2023-04-18T19:54:15.242Z,13.38
2023-04-18T19:56:50.500Z,15.20
2023-04-18T19:59:34.402Z,18.50
2023-04-18T20:02:11.515Z,12.30
2023-04-18T20:04:45.406Z,14.05
2023-04-18T20:07:19.816Z,14.00
2023-04-18T20:09:53.538Z,13.00
2023-04-18T20:12:26.599Z,12.55
2023-04-18T20:15:02.718Z,11.75
2023-04-18T20:17:35.865Z,11.30
2023-04-18T20:20:14.964Z,13.32
2023-04-18T20:22:48.535Z,13.77
2023-04-18T20:25:22.061Z,13.00
2023-04-18T20:27:56.118Z,11.80
2023-04-18T20:30:33.526Z,14.98
2023-04-18T20:33:09.586Z,11.00
2023-04-18T20:35:42.833Z,13.68
2023-04-18T20:38:16.008Z,11.75
2023-04-18T20:40:50.318Z,12.27
2023-04-18T20:43:23.249Z,13.73
2023-04-18T20:46:03.704Z,11.90
2023-04-18T20:48:36.997Z,12.20
2023-04-18T20:51:17.065Z,15.80
2023-04-18T20:53:49.976Z,12.73
2023-04-18T20:56:26.140Z,14.45
2023-04-18T20:59:02.578Z,15.38
2023-04-18T21:01:38.320Z,12.15
2023-04-18T21:04:13.640Z,12.38
2023-04-18T21:06:48.712Z,14.35
2023-04-18T21:09:21.588Z,16.23
2023-04-18T21:11:54.599Z,11.75
2023-04-18T21:14:28.300Z,12.40
2023-04-18T21:17:03.943Z,15.48
2023-04-18T21:19:41.993Z,14.35
2023-04-18T21:22:16.479Z,12.27
2023-04-18T21:24:51.623Z,16.48
2023-04-18T21:27:27.496Z,13.25
2023-04-18T21:30:00.919Z,12.45
2023-04-18T21:32:38.440Z,13.32
2023-04-18T21:35:11.758Z,15.48
2023-04-18T21:37:47.307Z,13.73
2023-04-18T21:40:20.176Z,14.55
2023-04-18T21:42:53.379Z,15.43
2023-04-18T21:45:26.342Z,13.90
2023-04-18T21:48:03.216Z,15.10
2023-04-18T21:50:36.840Z,15.73
2023-04-18T21:53:09.741Z,17.17
2023-04-18T21:55:42.459Z,13.95
2023-04-18T21:58:15.729Z,15.60
2023-04-18T22:00:48.801Z,15.38
2023-04-18T22:03:24.811Z,18.92
2023-04-18T22:05:59.717Z,14.95
2023-04-18T22:08:33.502Z,14.68
2023-04-18T22:11:08.000Z,14.90
2023-04-18T22:13:46.640Z,16.00
2023-04-18T22:16:19.851Z,13.88
2023-04-18T22:19:02.418Z,14.20
2023-04-18T22:21:34.764Z,13.23
2023-04-18T22:24:11.023Z,16.77
2023-04-18T22:26:45.920Z,14.98
2023-04-18T22:29:19.597Z,12.73
2023-04-18T22:31:52.935Z,18.13
2023-04-18T22:34:29.112Z,15.38
2023-04-18T22:37:03.927Z,15.63
2023-04-18T22:39:38.798Z,16.42
2023-04-18T22:42:11.440Z,16.42
2023-04-18T22:44:44.164Z,16.02
2023-04-18T22:47:17.162Z,19.50
2023-04-18T22:49:53.086Z,15.25
2023-04-18T22:52:27.038Z,17.35
2023-04-18T22:55:00.260Z,15.38
2023-04-18T22:57:34.163Z,13.60
2023-04-18T23:00:09.797Z,14.75
2023-04-18T23:02:46.120Z,17.25
2023-04-18T23:05:22.180Z,14.07
2023-04-18T23:07:59.647Z,13.85
